Time,TemperatureF,DewpointF,PressureIn,WindDirection,WindDirectionDegrees,WindSpeedMPH,WindSpeedGustMPH,Humidity,HourlyPrecipIn,Conditions,Clouds,dailyrainin,SoftwareType,DateUTC
2013-05-13 00:02:00,40.5,15.0,30.05,NNE,25,8.1,13.2,35,0.00,,---,0.00,VWS V12.08,2013-05-13 05:02:00,
2013-05-13 00:17:00,39.0,15.6,30.05,NE,48,7.6,10.1,38,0.00,,---,0.00,VWS V12.08,2013-05-13 05:17:00,
2013-05-13 00:32:00,38.3,17.8,30.05,NE,39,5.8,8.7,43,0.00,,---,0.00,VWS V12.08,2013-05-13 05:32:00,
2013-05-13 00:47:00,37.6,18.7,30.05,NNE,32,0.0,6.3,46,0.00,,---,0.00,VWS V12.08,2013-05-13 05:47:00,
2013-05-13 01:02:00,37.2,19.4,30.05,NNE,32,3.6,5.4,48,0.00,,---,0.00,VWS V12.08,2013-05-13 06:02:00,
2013-05-13 01:17:00,36.7,19.3,30.05,NNE,25,2.7,5.4,49,0.00,,---,0.00,VWS V12.08,2013-05-13 06:17:00,
2013-05-13 01:46:00,35.8,19.0,30.05,NE,41,0.0,3.1,50,0.00,,---,0.00,VWS V12.08,2013-05-13 06:46:00,
2013-05-13 02:02:00,34.9,18.6,30.05,NE,41,0.0,0.0,51,0.00,,---,0.00,VWS V12.08,2013-05-13 07:02:00,
2013-05-13 02:17:00,34.2,17.9,30.05,NE,41,0.0,0.0,51,0.00,,---,0.00,VWS V12.08,2013-05-13 07:17:00,
2013-05-13 02:32:00,34.5,19.2,30.05,NE,41,0.0,0.0,53,0.00,,---,0.00,VWS V12.08,2013-05-13 07:32:00,
2013-05-13 02:47:00,34.0,19.5,30.05,NE,41,0.0,0.0,55,0.00,,---,0.00,VWS V12.08,2013-05-13 07:47:00,
2013-05-13 03:02:00,33.6,19.6,30.05,NE,41,0.0,0.0,56,0.00,,---,0.00,VWS V12.08,2013-05-13 08:02:00,
2013-05-13 03:17:00,33.1,19.5,30.05,NE,41,0.0,0.0,57,0.00,,---,0.00,VWS V12.08,2013-05-13 08:17:00,
2013-05-13 03:32:00,32.9,19.4,30.05,NE,41,0.0,0.0,57,0.00,,---,0.00,VWS V12.08,2013-05-13 08:32:00,
2013-05-13 03:47:00,32.2,19.1,30.05,NE,41,0.0,0.0,58,0.00,,---,0.00,VWS V12.08,2013-05-13 08:47:00,
2013-05-13 04:02:00,31.3,18.6,30.05,NE,41,0.0,0.0,59,0.00,,---,0.00,VWS V12.08,2013-05-13 09:02:00,
2013-05-13 04:17:00,30.9,18.3,30.05,NE,41,0.0,0.0,59,0.00,,---,0.00,VWS V12.08,2013-05-13 09:17:00,
2013-05-13 04:32:00,30.2,18.0,30.05,NE,41,0.0,0.0,60,0.00,,---,0.00,VWS V12.08,2013-05-13 09:32:00,
2013-05-13 04:47:00,29.8,18.0,30.05,NE,41,0.0,0.0,61,0.00,,---,0.00,VWS V12.08,2013-05-13 09:47:00,
2013-05-13 05:02:00,29.7,17.9,30.05,NE,41,0.0,0.0,61,0.00,,---,0.00,VWS V12.08,2013-05-13 10:02:00,
2013-05-13 05:17:00,29.5,18.1,30.05,NE,41,0.0,0.0,62,0.00,,---,0.00,VWS V12.08,2013-05-13 10:17:00,
2013-05-13 05:46:00,29.7,19.0,30.05,NE,41,0.0,0.0,64,0.00,,---,0.00,VWS V12.08,2013-05-13 10:46:00,
2013-05-13 06:01:00,29.5,18.8,30.05,NE,41,0.0,0.0,64,0.00,,---,0.00,VWS V12.08,2013-05-13 11:01:00,
2013-05-13 06:16:00,29.8,19.5,30.05,NE,41,0.0,0.0,65,0.00,,---,0.00,VWS V12.08,2013-05-13 11:16:00,
2013-05-13 06:31:00,30.2,20.6,30.05,ESE,111,0.0,0.0,67,0.00,,---,0.00,VWS V12.08,2013-05-13 11:31:00,
2013-05-13 06:47:00,31.1,21.8,30.05,ESE,111,0.0,0.0,68,0.00,,---,0.00,VWS V12.08,2013-05-13 11:47:00,
2013-05-13 07:02:00,32.5,23.5,30.05,SSE,147,0.0,0.0,69,0.00,,---,0.00,VWS V12.08,2013-05-13 12:02:00,
2013-05-13 07:17:00,36.9,30.3,30.05,SSE,147,0.0,0.0,77,0.00,,---,0.00,VWS V12.08,2013-05-13 12:17:00,
2013-05-13 07:32:00,39.2,24.0,30.05,SE,143,0.0,0.0,54,0.00,,---,0.00,VWS V12.08,2013-05-13 12:32:00,
2013-05-13 07:47:00,41.5,21.8,30.05,SE,144,0.0,0.0,45,0.00,,---,0.00,VWS V12.08,2013-05-13 12:47:00,
2013-05-13 08:02:00,43.3,23.4,30.05,SSE,155,0.0,4.0,45,0.00,,---,0.00,VWS V12.08,2013-05-13 13:02:00,
2013-05-13 08:17:00,45.3,19.3,30.05,South,171,5.8,6.7,35,0.00,,---,0.00,VWS V12.08,2013-05-13 13:17:00,
2013-05-13 08:32:00,46.4,20.2,30.05,SSE,149,8.3,8.3,35,0.00,,---,0.00,VWS V12.08,2013-05-13 13:32:00,
2013-05-13 08:47:00,47.7,20.0,30.05,SSE,155,6.3,8.7,33,0.00,,---,0.00,VWS V12.08,2013-05-13 13:47:00,
2013-05-13 09:02:00,48.7,20.9,30.05,South,182,5.4,6.3,33,0.00,,---,0.00,VWS V12.08,2013-05-13 14:02:00,
2013-05-13 09:17:00,48.9,18.9,30.05,South,186,4.0,6.3,30,0.00,,---,0.00,VWS V12.08,2013-05-13 14:17:00,
2013-05-13 09:32:00,51.3,18.4,30.05,SSE,164,3.1,6.3,27,0.00,,---,0.00,VWS V12.08,2013-05-13 14:32:00,
2013-05-13 09:47:00,51.4,16.8,30.05,SE,145,5.4,7.2,25,0.00,,---,0.00,VWS V12.08,2013-05-13 14:47:00,
2013-05-13 10:02:00,51.4,18.6,30.05,South,189,4.9,9.6,27,0.00,,---,0.00,VWS V12.08,2013-05-13 15:02:00,
2013-05-13 10:17:00,52.5,16.8,30.05,SW,222,4.0,9.2,24,0.00,,---,0.00,VWS V12.08,2013-05-13 15:17:00,
2013-05-13 10:32:00,53.6,17.7,30.05,South,183,0.0,8.7,24,0.00,,---,0.00,VWS V12.08,2013-05-13 15:32:00,
2013-05-13 10:46:00,55.9,21.6,30.05,SSE,154,2.2,4.9,26,0.00,,---,0.00,VWS V12.08,2013-05-13 15:46:00,
2013-05-13 11:01:00,54.1,18.2,30.05,SSW,194,5.4,9.2,24,0.00,,---,0.00,VWS V12.08,2013-05-13 16:01:00,
2013-05-13 11:16:00,55.0,20.8,30.05,SW,232,4.0,10.5,26,0.00,,---,0.00,VWS V12.08,2013-05-13 16:16:00,
2013-05-13 11:31:00,55.9,18.7,30.05,West,267,5.8,12.8,23,0.00,,---,0.00,VWS V12.08,2013-05-13 16:31:00,
2013-05-13 11:47:00,56.8,19.5,30.05,SW,235,3.1,8.1,23,0.00,,---,0.00,VWS V12.08,2013-05-13 16:47:00,
2013-05-13 12:02:00,57.0,19.6,30.05,East,86,3.6,11.9,23,0.00,,---,0.00,VWS V12.08,2013-05-13 17:02:00,
2013-05-13 12:17:00,57.6,20.1,30.05,WSW,243,7.6,11.0,23,0.00,,---,0.00,VWS V12.08,2013-05-13 17:17:00,
2013-05-13 12:32:00,58.5,20.8,30.05,WNW,300,3.6,10.1,23,0.00,,---,0.00,VWS V12.08,2013-05-13 17:32:00,
2013-05-13 12:47:00,61.2,22.0,30.05,NNW,345,5.4,8.7,22,0.00,,---,0.00,VWS V12.08,2013-05-13 17:47:00,
2013-05-13 13:02:00,60.1,22.2,30.05,West,278,2.7,11.0,23,0.00,,---,0.00,VWS V12.08,2013-05-13 18:02:00,
2013-05-13 13:17:00,61.7,22.5,30.05,South,187,4.5,9.6,22,0.00,,---,0.00,VWS V12.08,2013-05-13 18:17:00,
2013-05-13 13:32:00,60.8,21.7,30.05,East,95,2.7,8.3,22,0.00,,---,0.00,VWS V12.08,2013-05-13 18:32:00,
2013-05-13 13:47:00,61.0,21.9,30.05,SW,218,8.7,9.2,22,0.00,,---,0.00,VWS V12.08,2013-05-13 18:47:00,
2013-05-13 14:02:00,62.2,23.0,30.05,WNW,283,4.0,12.8,22,0.00,,---,0.00,VWS V12.08,2013-05-13 19:02:00,
2013-05-13 14:17:00,61.7,22.5,30.05,South,181,3.1,11.4,22,0.00,,---,0.00,VWS V12.08,2013-05-13 19:17:00,
2013-05-13 14:32:00,61.3,22.2,30.05,WNW,294,8.1,14.5,22,0.00,,---,0.00,VWS V12.08,2013-05-13 19:32:00,
2013-05-13 14:47:00,64.6,23.8,30.05,WNW,301,3.6,11.4,21,0.00,,---,0.00,VWS V12.08,2013-05-13 19:47:00,
2013-05-13 15:02:00,63.1,23.7,30.05,SW,222,5.8,8.7,22,0.00,,---,0.00,VWS V12.08,2013-05-13 20:02:00,
2013-05-13 15:17:00,63.0,23.5,30.05,WSW,257,0.0,8.3,22,0.00,,---,0.00,VWS V12.08,2013-05-13 20:17:00,
2013-05-13 15:32:00,61.5,22.3,30.05,SSW,194,8.3,11.0,22,0.00,,---,0.00,VWS V12.08,2013-05-13 20:32:00,
2013-05-13 15:46:00,61.3,22.2,30.05,SW,218,5.8,12.3,22,0.00,,---,0.00,VWS V12.08,2013-05-13 20:46:00,
2013-05-13 16:02:00,61.7,22.5,30.05,SW,222,6.3,10.1,22,0.00,,---,0.00,VWS V12.08,2013-05-13 21:02:00,
2013-05-13 16:16:00,61.5,22.3,30.05,WSW,256,5.4,10.5,22,0.00,,---,0.00,VWS V12.08,2013-05-13 21:16:00,
2013-05-13 16:31:00,62.1,22.8,30.05,South,184,8.1,10.5,22,0.00,,---,0.00,VWS V12.08,2013-05-13 21:31:00,
2013-05-13 16:47:00,62.2,23.0,30.05,South,190,5.4,10.5,22,0.00,,---,0.00,VWS V12.08,2013-05-13 21:47:00,
2013-05-13 17:02:00,61.7,22.5,30.05,SSW,199,8.1,10.5,22,0.00,,---,0.00,VWS V12.08,2013-05-13 22:02:00,
2013-05-13 17:17:00,61.3,22.2,30.05,SSW,212,8.3,15.4,22,0.00,,---,0.00,VWS V12.08,2013-05-13 22:17:00,
2013-05-13 17:32:00,61.0,21.9,30.05,South,175,7.2,11.0,22,0.00,,---,0.00,VWS V12.08,2013-05-13 22:32:00,
2013-05-13 17:47:00,61.0,21.9,30.05,SSW,197,7.6,9.2,22,0.00,,---,0.00,VWS V12.08,2013-05-13 22:47:00,
2013-05-13 18:02:00,60.8,21.7,30.05,South,176,8.7,8.7,22,0.00,,---,0.00,VWS V12.08,2013-05-13 23:02:00,
2013-05-13 18:17:00,60.4,22.5,30.05,SSE,166,8.1,11.0,23,0.00,,---,0.00,VWS V12.08,2013-05-13 23:17:00,
2013-05-13 18:32:00,60.3,22.3,30.05,SSE,162,8.1,11.0,23,0.00,,---,0.00,VWS V12.08,2013-05-13 23:32:00,